createdAt,value
2023-04-25T00:01:06.083Z,3.10
2023-04-25T00:03:34.126Z,3.97
2023-04-25T00:08:31.581Z,3.97
2023-04-25T00:10:59.965Z,3.25
2023-04-25T00:15:55.068Z,5.05
2023-04-25T00:18:22.665Z,3.78
2023-04-25T00:20:50.271Z,3.60
2023-04-25T00:23:19.088Z,3.33
2023-04-25T00:25:48.559Z,3.40
2023-04-25T00:28:16.671Z,3.03
2023-04-25T00:30:45.029Z,3.40
2023-04-25T00:35:39.916Z,4.45
2023-04-25T00:38:07.516Z,3.63
2023-04-25T00:40:35.028Z,4.72
2023-04-25T00:43:02.772Z,3.45
2023-04-25T00:45:31.502Z,2.88
2023-04-25T00:47:59.182Z,4.25
2023-04-25T00:50:26.743Z,3.88
2023-04-25T00:52:54.152Z,3.95
2023-04-25T00:55:24.006Z,4.68
2023-04-25T00:57:54.150Z,4.38
2023-04-25T01:00:26.029Z,4.22
2023-04-25T01:02:56.861Z,4.18
2023-04-25T01:05:24.696Z,3.85
2023-04-25T01:07:52.392Z,3.80
2023-04-25T01:10:19.802Z,6.32
2023-04-25T01:12:48.115Z,4.80
2023-04-25T01:15:15.598Z,4.03
2023-04-25T01:17:46.106Z,3.97
2023-04-25T01:20:15.175Z,3.40
2023-04-25T01:22:44.519Z,3.15
2023-04-25T01:25:12.373Z,5.05
2023-04-25T01:27:42.968Z,3.00
2023-04-25T01:30:11.376Z,4.35
2023-04-25T01:32:42.499Z,3.22
2023-04-25T01:35:13.093Z,3.65
2023-04-25T01:37:42.856Z,4.28
2023-04-25T01:40:13.982Z,7.25
2023-04-25T01:42:47.712Z,4.20
2023-04-25T01:45:16.050Z,3.50
2023-04-25T01:47:47.946Z,3.45
2023-04-25T01:50:17.809Z,4.43
2023-04-25T01:52:45.484Z,4.15
2023-04-25T01:57:56.420Z,3.78
2023-04-25T02:00:33.658Z,4.78
2023-04-25T02:03:01.081Z,5.60
2023-04-25T02:05:41.547Z,3.78
2023-04-25T02:08:11.818Z,5.38
2023-04-25T02:10:44.893Z,4.00
2023-04-25T02:13:21.430Z,4.38
2023-04-25T02:15:59.635Z,4.18
2023-04-25T02:18:27.420Z,4.68
2023-04-25T02:20:55.289Z,3.95
2023-04-25T02:23:22.892Z,5.30
2023-04-25T02:25:50.956Z,4.20
2023-04-25T02:28:18.365Z,4.63
2023-04-25T02:30:46.036Z,5.28
2023-04-25T02:33:13.335Z,4.35
2023-04-25T02:35:41.249Z,4.80
2023-04-25T02:38:11.457Z,5.70
2023-04-25T02:40:41.662Z,4.32
2023-04-25T02:43:09.219Z,4.60
2023-04-25T02:45:36.478Z,3.97
2023-04-25T02:48:07.191Z,4.10
2023-04-25T02:50:34.749Z,4.70
2023-04-25T02:53:02.189Z,5.22
2023-04-25T02:55:36.317Z,4.75
2023-04-25T02:58:05.935Z,4.22
2023-04-25T03:00:43.288Z,4.88
2023-04-25T03:03:12.184Z,4.82
2023-04-25T03:05:39.769Z,4.53
2023-04-25T03:08:07.525Z,4.97
2023-04-25T03:13:10.473Z,4.65
2023-04-25T03:15:40.084Z,5.38
2023-04-25T03:18:08.162Z,5.28
2023-04-25T03:20:35.544Z,5.90
2023-04-25T03:23:04.797Z,5.57
2023-04-25T03:28:00.435Z,5.75
2023-04-25T03:30:28.058Z,5.07
2023-04-25T03:32:55.419Z,5.88
2023-04-25T03:35:25.049Z,5.05
2023-04-25T03:37:53.303Z,5.88
2023-04-25T03:40:26.385Z,5.35
2023-04-25T03:43:23.487Z,6.15
2023-04-25T03:45:56.800Z,6.03
2023-04-25T03:48:30.135Z,4.82
2023-04-25T03:50:57.597Z,6.25
2023-04-25T03:53:26.668Z,5.05
2023-04-25T03:56:19.718Z,4.47
2023-04-25T03:58:48.809Z,5.28
2023-04-25T04:01:18.152Z,4.13
2023-04-25T04:03:45.896Z,5.15
2023-04-25T04:06:14.130Z,4.82
2023-04-25T04:08:43.849Z,5.13
2023-04-25T04:13:39.535Z,5.60
2023-04-25T04:16:08.501Z,5.15
2023-04-25T04:18:37.137Z,5.00
2023-04-25T04:21:04.581Z,5.35
2023-04-25T04:23:38.885Z,5.63
2023-04-25T04:26:09.587Z,5.43
2023-04-25T04:28:55.436Z,4.72
2023-04-25T04:31:43.573Z,4.85
2023-04-25T04:34:11.765Z,6.35
2023-04-25T04:36:41.022Z,4.68
2023-04-25T04:39:10.153Z,6.68
2023-04-25T04:41:44.325Z,5.10
2023-04-25T04:44:39.910Z,5.18
2023-04-25T04:47:26.879Z,4.35
2023-04-25T04:50:12.334Z,4.93
2023-04-25T04:52:58.509Z,6.07
2023-04-25T04:55:44.259Z,4.47
2023-04-25T04:58:37.858Z,4.45
2023-04-25T05:01:28.111Z,5.63
2023-04-25T05:04:21.879Z,5.68
2023-04-25T05:07:24.410Z,5.47
2023-04-25T05:10:05.123Z,5.30
2023-04-25T05:12:58.692Z,5.55
2023-04-25T05:15:43.018Z,5.13
2023-04-25T05:18:28.078Z,4.40
2023-04-25T05:21:08.707Z,6.47
2023-04-25T05:23:42.797Z,4.90
2023-04-25T05:26:25.528Z,4.47
2023-04-25T05:29:28.192Z,6.70
2023-04-25T05:32:15.654Z,4.38
2023-04-25T05:34:43.149Z,4.22
2023-04-25T05:37:19.988Z,4.22
2023-04-25T05:39:55.771Z,4.22
2023-04-25T05:42:46.390Z,7.03
2023-04-25T05:45:27.067Z,5.03
2023-04-25T05:47:57.386Z,3.80
2023-04-25T05:50:53.713Z,3.70
2023-04-25T05:53:41.179Z,4.00
2023-04-25T05:56:09.007Z,4.20
2023-04-25T05:58:36.325Z,4.65
2023-04-25T06:01:04.072Z,4.70
2023-04-25T06:03:31.634Z,4.57
2023-04-25T06:05:59.488Z,3.88
2023-04-25T06:08:27.523Z,5.25
2023-04-25T06:10:55.129Z,5.13
2023-04-25T06:13:24.048Z,4.20
2023-04-25T06:15:51.446Z,3.92
2023-04-25T06:18:22.108Z,7.90
2023-04-25T06:20:53.034Z,5.05
2023-04-25T06:23:20.539Z,4.70
2023-04-25T06:25:59.876Z,5.40
2023-04-25T06:28:28.475Z,4.55
2023-04-25T06:30:56.115Z,4.72
2023-04-25T06:33:25.271Z,4.40
2023-04-25T06:35:53.755Z,6.38
2023-04-25T06:38:25.148Z,6.95
2023-04-25T06:40:53.816Z,4.10
2023-04-25T06:43:21.244Z,5.15
2023-04-25T06:46:06.407Z,4.68
2023-04-25T06:48:40.000Z,4.78
2023-04-25T06:51:07.537Z,4.50
2023-04-25T06:56:05.917Z,4.78
2023-04-25T06:58:51.294Z,4.45
2023-04-25T07:01:30.935Z,5.57
2023-04-25T07:04:00.018Z,5.47
2023-04-25T07:06:28.830Z,9.07
2023-04-25T07:11:24.680Z,5.43
2023-04-25T07:13:52.253Z,5.63
2023-04-25T07:16:19.625Z,5.72
2023-04-25T07:18:47.702Z,5.30
2023-04-25T07:21:15.142Z,5.28
2023-04-25T07:23:44.837Z,5.97
2023-04-25T07:26:16.513Z,5.10
2023-04-25T07:29:04.022Z,5.03
2023-04-25T07:31:31.368Z,10.57
2023-04-25T07:34:01.748Z,5.22
2023-04-25T07:36:29.541Z,6.43
2023-04-25T07:38:56.774Z,5.15
2023-04-25T07:41:24.220Z,5.20
2023-04-25T07:43:51.502Z,4.22
2023-04-25T07:46:20.977Z,4.47
2023-04-25T07:48:48.467Z,5.20
2023-04-25T07:51:16.017Z,5.13
2023-04-25T07:53:43.891Z,4.40
2023-04-25T07:56:14.023Z,5.10
2023-04-25T07:58:43.866Z,3.60
2023-04-25T08:01:14.201Z,4.75
2023-04-25T08:04:03.613Z,6.18
2023-04-25T08:06:44.912Z,4.88
2023-04-25T08:09:17.702Z,4.15
2023-04-25T08:11:45.038Z,4.97
2023-04-25T08:14:15.758Z,5.28
2023-04-25T08:16:44.602Z,4.82
2023-04-25T08:19:12.059Z,4.32
2023-04-25T08:21:39.771Z,8.35
2023-04-25T08:24:11.964Z,4.63
2023-04-25T08:26:42.204Z,5.65
2023-04-25T08:29:12.255Z,4.95
2023-04-25T08:31:41.940Z,5.72
2023-04-25T08:34:10.507Z,4.10
2023-04-25T08:36:49.488Z,12.27
2023-04-25T08:39:24.351Z,3.00
2023-04-25T08:42:12.145Z,4.40
2023-04-25T08:44:39.760Z,4.50
2023-04-25T08:47:07.860Z,4.03
2023-04-25T08:49:47.926Z,5.60
2023-04-25T08:52:18.242Z,4.57
2023-04-25T08:54:50.775Z,4.47
2023-04-25T08:57:20.782Z,4.95
2023-04-25T08:59:50.151Z,5.95
2023-04-25T09:02:20.961Z,5.30
2023-04-25T09:04:51.399Z,4.28
2023-04-25T09:07:22.126Z,5.45
2023-04-25T09:09:49.416Z,5.07
2023-04-25T09:12:22.516Z,4.25
2023-04-25T09:15:19.699Z,3.97
2023-04-25T09:18:04.938Z,11.30
2023-04-25T09:23:16.294Z,4.82
2023-04-25T09:25:44.360Z,6.45
2023-04-25T09:30:39.877Z,5.75
2023-04-25T09:33:33.165Z,4.63
2023-04-25T09:36:08.087Z,5.55
2023-04-25T09:39:02.211Z,4.85
2023-04-25T09:41:33.582Z,5.35
2023-04-25T09:44:03.690Z,4.38
2023-04-25T09:46:40.362Z,4.35
2023-04-25T09:49:16.179Z,5.45
2023-04-25T09:52:00.058Z,4.78
2023-04-25T09:54:35.940Z,5.55
2023-04-25T09:57:18.802Z,4.28
2023-04-25T09:59:52.638Z,6.50
2023-04-25T10:02:29.648Z,4.88
2023-04-25T10:05:08.765Z,5.15
2023-04-25T10:07:40.992Z,4.95
2023-04-25T10:10:16.703Z,6.65
2023-04-25T10:12:45.225Z,4.07
2023-04-25T10:15:15.508Z,7.47
2023-04-25T10:17:43.233Z,5.90
2023-04-25T10:20:12.188Z,8.85
2023-04-25T10:22:48.964Z,5.50
2023-04-25T10:25:16.699Z,4.30
2023-04-25T10:27:44.288Z,5.10
2023-04-25T10:30:16.827Z,6.65
2023-04-25T10:32:46.365Z,5.20
2023-04-25T10:35:36.182Z,8.30
2023-04-25T10:38:15.834Z,9.77
2023-04-25T10:41:09.435Z,5.90
2023-04-25T10:43:47.396Z,5.47
2023-04-25T10:46:31.008Z,4.63
2023-04-25T10:49:01.714Z,5.95
2023-04-25T10:51:50.983Z,4.95
2023-04-25T10:54:23.437Z,3.95
2023-04-25T10:56:52.370Z,7.88
2023-04-25T10:59:24.226Z,7.55
2023-04-25T11:01:57.603Z,8.63
2023-04-25T11:04:32.496Z,4.25
2023-04-25T11:07:10.631Z,6.35
2023-04-25T11:09:41.889Z,4.65
2023-04-25T11:12:12.973Z,6.43
2023-04-25T11:17:13.397Z,4.68
2023-04-25T11:19:41.064Z,5.75
2023-04-25T11:22:08.937Z,5.05
2023-04-25T11:24:40.016Z,5.45
2023-04-25T11:27:07.698Z,4.75
2023-04-25T11:29:36.350Z,5.13
2023-04-25T11:32:04.406Z,5.88
2023-04-25T11:34:33.950Z,4.28
2023-04-25T11:37:08.400Z,5.07
2023-04-25T11:39:36.355Z,4.88
2023-04-25T11:42:07.665Z,5.55
2023-04-25T11:44:41.742Z,6.15
2023-04-25T11:47:16.121Z,4.18
2023-04-25T11:49:43.379Z,4.88
2023-04-25T11:52:14.028Z,5.10
2023-04-25T11:54:42.362Z,5.15
2023-04-25T11:57:13.506Z,5.18
2023-04-25T11:59:41.404Z,3.42
2023-04-25T12:02:08.640Z,4.93
2023-04-25T12:04:39.495Z,5.60
2023-04-25T12:07:11.478Z,4.28
2023-04-25T12:09:38.773Z,5.70
2023-04-25T12:12:07.305Z,4.85
2023-04-25T12:14:37.177Z,4.10
2023-04-25T12:17:08.982Z,3.90
2023-04-25T12:19:41.574Z,6.47
2023-04-25T12:22:25.936Z,4.40
2023-04-25T12:24:55.173Z,5.90
2023-04-25T12:27:23.061Z,4.00
2023-04-25T12:29:56.933Z,4.28
2023-04-25T12:32:25.522Z,8.73
2023-04-25T12:34:53.136Z,6.22
2023-04-25T12:37:20.581Z,4.57
2023-04-25T12:39:48.019Z,4.55
2023-04-25T12:42:17.768Z,3.80
2023-04-25T12:44:45.060Z,3.70
2023-04-25T12:47:13.483Z,5.35
2023-04-25T12:49:41.344Z,4.97
2023-04-25T12:52:08.701Z,8.60
2023-04-25T12:54:36.266Z,7.95
2023-04-25T12:57:04.021Z,5.43
2023-04-25T12:59:31.422Z,6.57
2023-04-25T13:01:58.697Z,6.57
2023-04-25T13:04:26.292Z,6.90
2023-04-25T13:06:54.495Z,2.90
2023-04-25T13:09:22.042Z,4.90
2023-04-25T13:11:49.383Z,3.10
2023-04-25T13:14:16.674Z,2.60
2023-04-25T13:16:43.925Z,2.35
2023-04-25T13:19:12.554Z,0.80
2023-04-25T13:21:40.257Z,4.57
2023-04-25T13:24:08.003Z,4.00
2023-04-25T13:26:35.363Z,4.68
2023-04-25T13:29:05.428Z,5.40
2023-04-25T13:31:33.209Z,2.92
2023-04-25T13:34:00.832Z,2.88
2023-04-25T13:36:28.920Z,1.38
2023-04-25T13:38:56.378Z,2.45
2023-04-25T13:41:24.167Z,2.30
2023-04-25T13:43:52.128Z,1.10
2023-04-25T13:48:51.799Z,1.52
2023-04-25T13:51:19.981Z,1.45
2023-04-25T13:53:50.727Z,1.45
2023-04-25T13:56:20.552Z,1.35
2023-04-25T13:58:47.847Z,1.45
2023-04-25T14:01:15.876Z,3.08
2023-04-25T14:03:43.463Z,2.38
2023-04-25T14:06:12.101Z,1.55
2023-04-25T14:08:39.967Z,1.95
2023-04-25T14:11:07.303Z,4.07
2023-04-25T14:13:34.499Z,2.03
2023-04-25T14:16:01.928Z,1.83
2023-04-25T14:18:29.198Z,2.53
2023-04-25T14:20:57.749Z,2.20
2023-04-25T14:23:25.110Z,2.08
2023-04-25T14:25:52.286Z,1.25
2023-04-25T14:28:20.856Z,1.42
2023-04-25T14:30:50.797Z,3.40
2023-04-25T14:33:17.987Z,1.40
2023-04-25T14:35:45.956Z,1.10
2023-04-25T14:38:13.485Z,2.00
2023-04-25T14:40:41.070Z,1.83
2023-04-25T14:43:08.422Z,1.48
2023-04-25T14:45:36.097Z,1.63
2023-04-25T14:48:05.764Z,2.05
2023-04-25T14:50:36.392Z,2.80
2023-04-25T14:53:05.221Z,2.17
2023-04-25T14:55:35.090Z,2.50
2023-04-25T14:58:02.996Z,2.40
2023-04-25T15:00:33.040Z,2.75
2023-04-25T15:03:00.850Z,1.52
2023-04-25T15:07:55.533Z,2.70
2023-04-25T15:10:23.823Z,2.22
2023-04-25T15:12:51.767Z,2.15
2023-04-25T15:15:26.150Z,2.42
2023-04-25T15:17:59.146Z,3.17
2023-04-25T15:20:28.585Z,1.98
2023-04-25T15:22:56.278Z,1.75
2023-04-25T15:25:23.799Z,2.58
2023-04-25T15:27:57.707Z,3.00
2023-04-25T15:32:52.433Z,2.53
2023-04-25T15:35:20.084Z,2.63
2023-04-25T15:37:47.404Z,2.63
2023-04-25T15:40:20.921Z,2.33
2023-04-25T15:42:53.122Z,3.33
2023-04-25T15:45:26.055Z,3.05
2023-04-25T15:47:56.731Z,3.45
2023-04-25T15:50:25.638Z,1.77
2023-04-25T15:52:53.371Z,2.50
2023-04-25T15:55:22.084Z,2.53
2023-04-25T15:57:51.341Z,2.47
2023-04-25T16:00:19.603Z,2.35
2023-04-25T16:02:50.803Z,1.80
2023-04-25T16:05:19.084Z,2.03
2023-04-25T16:07:47.766Z,1.70
2023-04-25T16:10:21.322Z,2.85
2023-04-25T16:12:50.690Z,3.10
2023-04-25T16:15:18.189Z,3.28
2023-04-25T16:17:45.617Z,2.65
2023-04-25T16:20:13.524Z,1.83
2023-04-25T16:25:10.748Z,2.13
2023-04-25T16:27:39.625Z,1.52
2023-04-25T16:30:11.714Z,2.92
2023-04-25T16:32:41.719Z,3.03
2023-04-25T16:35:10.268Z,3.47
2023-04-25T16:37:37.456Z,2.33
2023-04-25T16:40:08.958Z,2.35
2023-04-25T16:42:36.887Z,2.90
2023-04-25T16:45:05.187Z,3.90
2023-04-25T16:47:32.506Z,2.90
2023-04-25T16:50:03.305Z,2.53
2023-04-25T16:52:31.522Z,2.90
2023-04-25T16:54:59.016Z,2.17
2023-04-25T16:57:26.846Z,3.53
2023-04-25T16:59:54.185Z,3.03
2023-04-25T17:02:21.678Z,1.90
2023-04-25T17:04:49.019Z,2.30
2023-04-25T17:07:16.733Z,2.55
2023-04-25T17:09:44.059Z,1.58
2023-04-25T17:12:11.318Z,3.40
2023-04-25T17:14:39.074Z,5.18
2023-04-25T17:17:09.298Z,4.25
2023-04-25T17:19:36.769Z,3.83
2023-04-25T17:22:04.201Z,7.50
2023-04-25T17:24:31.501Z,3.28
2023-04-25T17:26:59.074Z,3.58
2023-04-25T17:29:27.646Z,4.10
2023-04-25T17:31:56.968Z,3.88
2023-04-25T17:34:24.345Z,4.22
2023-04-25T17:36:51.503Z,3.40
2023-04-25T17:39:20.044Z,3.42
2023-04-25T17:41:47.195Z,3.17
2023-04-25T17:44:14.390Z,3.50
2023-04-25T17:46:41.702Z,5.03
2023-04-25T17:49:09.057Z,5.22
2023-04-25T17:51:37.902Z,3.42
2023-04-25T17:54:05.640Z,4.25
2023-04-25T17:56:37.852Z,5.07
2023-04-25T17:59:05.366Z,3.40
2023-04-25T18:01:33.058Z,2.78
2023-04-25T18:04:00.705Z,3.45
2023-04-25T18:06:30.058Z,2.95
2023-04-25T18:08:57.373Z,3.42
2023-04-25T18:11:25.544Z,4.22
2023-04-25T18:13:53.106Z,2.78
2023-04-25T18:16:23.242Z,3.55
2023-04-25T18:18:54.043Z,2.50
2023-04-25T18:21:21.897Z,2.45
2023-04-25T18:23:49.357Z,2.95
2023-04-25T18:26:16.569Z,2.80
2023-04-25T18:28:44.192Z,2.90
2023-04-25T18:31:11.876Z,4.60
2023-04-25T18:33:39.365Z,3.30
2023-04-25T18:36:07.424Z,2.38
2023-04-25T18:38:35.838Z,2.95
2023-04-25T18:41:26.838Z,2.78
2023-04-25T18:43:56.138Z,3.33
2023-04-25T18:46:25.599Z,2.70
2023-04-25T18:48:56.734Z,2.65
2023-04-25T18:51:31.597Z,3.10
2023-04-25T18:54:00.039Z,2.90
2023-04-25T18:56:28.609Z,2.83
2023-04-25T18:58:57.515Z,5.95
2023-04-25T19:01:26.565Z,2.53
2023-04-25T19:03:58.337Z,3.50
2023-04-25T19:06:29.421Z,3.88
2023-04-25T19:09:00.441Z,2.88
2023-04-25T19:11:27.904Z,3.63
2023-04-25T19:13:58.267Z,2.65
2023-04-25T19:16:26.883Z,3.25
2023-04-25T19:18:56.658Z,4.47
2023-04-25T19:21:24.032Z,2.70
2023-04-25T19:23:54.341Z,2.80
2023-04-25T19:26:23.983Z,4.10
2023-04-25T19:29:15.206Z,2.90
2023-04-25T19:31:45.612Z,4.35
2023-04-25T19:34:13.819Z,3.80
2023-04-25T19:36:43.950Z,3.58
2023-04-25T19:39:11.765Z,3.88
2023-04-25T19:41:39.429Z,3.35
2023-04-25T19:44:09.349Z,3.97
2023-04-25T19:46:40.111Z,4.28
2023-04-25T19:49:08.295Z,4.45
2023-04-25T19:51:37.286Z,5.25
2023-04-25T19:54:04.927Z,3.50
2023-04-25T19:56:32.551Z,3.47
2023-04-25T19:58:59.756Z,4.72
2023-04-25T20:01:27.275Z,3.70
2023-04-25T20:03:55.004Z,4.18
2023-04-25T20:06:22.708Z,3.95
2023-04-25T20:08:53.498Z,4.75
2023-04-25T20:11:21.711Z,3.80
2023-04-25T20:13:48.986Z,3.97
2023-04-25T20:16:19.907Z,3.40
2023-04-25T20:18:51.909Z,4.28
2023-04-25T20:21:20.117Z,4.70
2023-04-25T20:23:47.300Z,4.78
2023-04-25T20:26:14.508Z,3.65
2023-04-25T20:28:41.945Z,4.07
2023-04-25T20:31:10.945Z,4.45
2023-04-25T20:33:38.729Z,4.43
2023-04-25T20:36:06.080Z,3.50
2023-04-25T20:38:33.323Z,4.07
2023-04-25T20:41:00.726Z,4.30
2023-04-25T20:43:28.060Z,4.78
2023-04-25T20:45:55.416Z,3.85
2023-04-25T20:48:22.734Z,4.28
2023-04-25T20:50:50.237Z,4.03
2023-04-25T20:53:17.476Z,3.97
2023-04-25T20:55:44.813Z,4.68
2023-04-25T20:58:12.901Z,4.30
2023-04-25T21:00:40.102Z,4.57
2023-04-25T21:03:07.689Z,4.40
2023-04-25T21:05:38.240Z,4.15
2023-04-25T21:08:05.826Z,4.82
2023-04-25T21:10:37.324Z,4.53
2023-04-25T21:13:05.193Z,5.43
2023-04-25T21:15:32.452Z,5.68
2023-04-25T21:17:59.783Z,4.95
2023-04-25T21:20:26.997Z,4.57
2023-04-25T21:22:54.609Z,5.25
2023-04-25T21:25:30.822Z,4.70
2023-04-25T21:27:59.633Z,7.13
2023-04-25T21:30:27.904Z,5.18
2023-04-25T21:32:56.438Z,5.80
2023-04-25T21:35:24.499Z,4.28
2023-04-25T21:37:57.105Z,4.32
2023-04-25T21:40:24.636Z,6.65
2023-04-25T21:42:53.403Z,5.95
2023-04-25T21:45:21.222Z,4.70
2023-04-25T21:47:48.801Z,6.35
2023-04-25T21:50:17.068Z,5.25
2023-04-25T21:52:48.445Z,4.75
2023-04-25T21:55:16.997Z,5.78
2023-04-25T21:57:44.490Z,4.30
2023-04-25T22:00:24.501Z,4.63
2023-04-25T22:02:52.609Z,4.82
2023-04-25T22:05:21.134Z,5.47
2023-04-25T22:07:53.787Z,5.28
2023-04-25T22:10:22.301Z,6.90
2023-04-25T22:12:51.003Z,4.80
2023-04-25T22:15:22.468Z,7.22
2023-04-25T22:17:56.251Z,5.45
2023-04-25T22:20:26.394Z,5.75
2023-04-25T22:23:00.812Z,5.03
2023-04-25T22:25:28.692Z,6.00
2023-04-25T22:27:56.036Z,6.03
2023-04-25T22:30:26.415Z,6.40
2023-04-25T22:32:53.857Z,6.57
2023-04-25T22:35:21.274Z,6.88
2023-04-25T22:37:49.126Z,6.25
2023-04-25T22:40:19.380Z,7.05
2023-04-25T22:42:46.739Z,6.75
2023-04-25T22:45:17.249Z,5.93
2023-04-25T22:47:44.888Z,6.35
2023-04-25T22:50:16.837Z,6.20
2023-04-25T22:52:44.408Z,6.88
2023-04-25T22:55:13.106Z,8.20
2023-04-25T22:57:42.581Z,8.00
2023-04-25T23:00:19.935Z,10.63
2023-04-25T23:02:48.841Z,9.60
2023-04-25T23:05:17.814Z,6.80
2023-04-25T23:07:45.554Z,7.22
2023-04-25T23:10:15.518Z,8.00
2023-04-25T23:12:43.038Z,7.65
2023-04-25T23:15:12.402Z,8.20
2023-04-25T23:17:43.417Z,7.28
2023-04-25T23:20:12.675Z,7.25
2023-04-25T23:22:40.806Z,8.02
2023-04-25T23:25:12.772Z,10.90
2023-04-25T23:27:40.128Z,8.38
2023-04-25T23:30:09.274Z,9.20
2023-04-25T23:32:39.986Z,10.50
2023-04-25T23:35:08.346Z,10.27
2023-04-25T23:37:38.001Z,8.52
2023-04-25T23:40:10.582Z,10.77
2023-04-25T23:42:40.064Z,9.73
2023-04-25T23:45:10.254Z,8.40
2023-04-25T23:47:38.027Z,9.45
2023-04-25T23:50:07.248Z,8.82
2023-04-25T23:52:34.633Z,10.90
2023-04-25T23:55:02.118Z,9.32
2023-04-25T23:57:29.569Z,12.23
2023-04-25T23:59:59.738Z,13.25
